Time;durP1;ratioP1;P1;durP2;ratioP2;P2;SDS_P1;SDS_P2;PMS_P1;PMS_P2;Temp;Humidity;BMP_temperature;BMP_pressure;BME280_temperature;BME280_humidity;BME280_pressure;Samples;Min_cycle;Max_cycle;Signal;HPM_P1;HPM_P2
2023/03/28 00:00:21;;;;;;;2.73;2.53;;;4.30;99.90;;;;;;5074915;28;20877;-85
2023/03/28 00:02:46;;;;;;;3.30;2.70;;;4.10;99.90;;;;;;5056558;28;20881;-85
2023/03/28 00:05:12;;;;;;;2.90;2.60;;;4.10;99.90;;;;;;5073967;28;20387;-85
2023/03/28 00:07:38;;;;;;;5.00;2.85;;;4.20;99.90;;;;;;5074205;28;20392;-86
2023/03/28 00:10:05;;;;;;;2.90;2.70;;;3.90;99.90;;;;;;5056492;28;20388;-86
2023/03/28 00:12:31;;;;;;;3.15;2.30;;;4.00;99.90;;;;;;5074741;28;20908;-86
2023/03/28 00:14:56;;;;;;;3.65;2.47;;;4.00;99.90;;;;;;5056198;28;20388;-86
2023/03/28 00:17:23;;;;;;;2.70;2.50;;;3.90;99.90;;;;;;5055458;28;20392;-86
2023/03/28 00:19:49;;;;;;;2.80;2.60;;;3.80;99.90;;;;;;5074553;28;20394;-85
2023/03/28 00:22:15;;;;;;;2.63;2.42;;;3.90;99.90;;;;;;5056526;28;20753;-86
2023/03/28 00:24:40;;;;;;;3.67;2.92;;;3.70;99.90;;;;;;5073049;28;20390;-86
2023/03/28 00:27:06;;;;;;;4.75;2.60;;;3.70;99.90;;;;;;5073185;28;20395;-86
2023/03/28 00:29:33;;;;;;;3.55;2.90;;;3.70;99.90;;;;;;5055390;28;20426;-86
2023/03/28 00:31:59;;;;;;;3.72;2.80;;;3.60;99.90;;;;;;5056464;28;20766;-86
2023/03/28 00:34:25;;;;;;;3.57;2.90;;;3.50;99.90;;;;;;5090940;28;20415;-86
2023/03/28 00:36:52;;;;;;;3.58;2.65;;;3.40;99.90;;;;;;5060462;28;20495;-86
2023/03/28 00:39:18;;;;;;;3.58;3.00;;;3.40;99.90;;;;;;5056043;28;20499;-86
2023/03/28 00:41:44;;;;;;;3.80;3.30;;;3.30;99.90;;;;;;5072843;28;20453;-86
2023/03/28 00:44:46;;;;;;;3.27;2.73;;;3.40;99.90;;;;;;5072951;28;20466;-86
2023/03/28 00:47:27;;;;;;;3.30;2.80;;;3.30;99.90;;;;;;5054961;28;20388;-86
2023/03/28 00:50:20;;;;;;;2.90;2.40;;;3.30;99.90;;;;;;5055936;28;20408;-86
2023/03/28 00:53:08;;;;;;;4.10;2.70;;;3.30;99.90;;;;;;5055215;28;20446;-85
2023/03/28 00:55:34;;;;;;;3.00;2.70;;;3.30;99.90;;;;;;5054946;28;20439;-86
2023/03/28 00:58:02;;;;;;;3.63;2.53;;;3.30;99.90;;;;;;5073378;28;20408;-85
2023/03/28 01:00:29;;;;;;;2.75;2.55;;;3.30;99.90;;;;;;5073510;28;20390;-86
2023/03/28 01:02:57;;;;;;;3.50;2.58;;;3.30;99.90;;;;;;5057410;28;20532;-87
2023/03/28 01:05:26;;;;;;;2.92;2.70;;;3.30;99.90;;;;;;5074997;28;20422;-86
2023/03/28 01:07:57;;;;;;;4.03;2.80;;;3.30;99.90;;;;;;5055648;28;20392;-86
2023/03/28 01:10:23;;;;;;;2.42;2.22;;;3.20;99.90;;;;;;5049435;28;20397;-86
2023/03/28 01:12:51;;;;;;;3.30;2.58;;;3.10;99.90;;;;;;5035535;28;20393;-85
2023/03/28 01:15:17;;;;;;;2.63;2.42;;;3.10;99.90;;;;;;5035864;28;20601;-86
2023/03/28 01:17:45;;;;;;;2.90;2.70;;;3.10;99.90;;;;;;5052498;28;20504;-87
2023/03/28 01:20:38;;;;;;;3.58;2.60;;;2.90;99.90;;;;;;5052894;28;20734;-85
2023/03/28 01:23:25;;;;;;;2.38;2.17;;;2.80;99.90;;;;;;5035486;28;20929;-86
2023/03/28 01:26:28;;;;;;;2.85;2.30;;;2.90;99.90;;;;;;5034503;28;20385;-86
2023/03/28 01:29:12;;;;;;;3.38;2.40;;;2.80;99.90;;;;;;5052563;28;20447;-86
2023/03/28 01:31:49;;;;;;;3.20;2.40;;;2.80;99.90;;;;;;5052931;28;20396;-86
2023/03/28 01:34:36;;;;;;;2.50;2.30;;;2.90;99.90;;;;;;5052857;28;20446;-86
2023/03/28 01:37:31;;;;;;;2.72;2.38;;;2.90;99.90;;;;;;5033537;28;20405;-86
2023/03/28 01:40:12;;;;;;;2.70;2.50;;;2.90;99.90;;;;;;5052658;28;20377;-85
2023/03/28 01:42:37;;;;;;;3.40;2.63;;;2.90;99.90;;;;;;5052691;28;20862;-86
2023/03/28 01:45:23;;;;;;;3.00;2.50;;;2.80;99.90;;;;;;5051744;28;20401;-85
2023/03/28 01:48:06;;;;;;;2.75;2.55;;;2.70;99.90;;;;;;5035367;28;20396;-86
2023/03/28 01:50:47;;;;;;;3.22;2.55;;;2.70;99.90;;;;;;5053421;28;20728;-86
2023/03/28 01:53:36;;;;;;;3.70;2.35;;;2.80;99.90;;;;;;5034117;28;20390;-86
2023/03/28 01:56:21;;;;;;;3.10;2.47;;;2.80;99.90;;;;;;5033667;28;20417;-86
2023/03/28 01:58:46;;;;;;;2.20;2.00;;;2.80;99.90;;;;;;5036740;28;20449;-86
2023/03/28 02:01:23;;;;;;;2.60;2.40;;;2.70;99.90;;;;;;5052935;28;20468;-86
2023/03/28 02:03:59;;;;;;;2.95;2.70;;;2.70;99.90;;;;;;5055473;28;20409;-86
2023/03/28 02:06:26;;;;;;;3.00;2.38;;;2.50;99.90;;;;;;5040433;28;20954;-85
2023/03/28 02:08:54;;;;;;;2.40;2.20;;;2.50;99.90;;;;;;5052274;28;20444;-86
2023/03/28 02:11:20;;;;;;;4.30;2.40;;;2.50;99.90;;;;;;5066203;28;20380;-85
2023/03/28 02:13:52;;;;;;;2.85;2.40;;;2.50;99.90;;;;;;5054621;28;20379;-85
2023/03/28 02:16:21;;;;;;;2.95;2.65;;;2.50;99.90;;;;;;5053508;28;20426;-86
2023/03/28 02:18:53;;;;;;;3.20;2.60;;;2.50;99.90;;;;;;5053416;28;20881;-86
2023/03/28 02:21:25;;;;;;;2.63;2.43;;;2.40;99.90;;;;;;5071579;28;20434;-86
2023/03/28 02:23:53;;;;;;;3.15;2.70;;;2.30;99.90;;;;;;5054273;28;20793;-86
2023/03/28 02:26:21;;;;;;;3.50;2.78;;;2.20;99.90;;;;;;5053699;28;20395;-86
2023/03/28 02:28:51;;;;;;;2.87;2.67;;;2.10;99.90;;;;;;5054614;28;20477;-86
2023/03/28 02:31:17;;;;;;;4.40;2.60;;;2.10;99.90;;;;;;5054197;28;20890;-86
2023/03/28 02:33:45;;;;;;;3.10;2.80;;;2.10;99.90;;;;;;5065863;28;20403;-86
2023/03/28 02:36:30;;;;;;;3.17;2.78;;;2.10;99.90;;;;;;5072759;28;20403;-86
2023/03/28 02:39:15;;;;;;;3.38;2.75;;;2.10;99.90;;;;;;5073123;28;20462;-86
2023/03/28 02:41:41;;;;;;;2.90;2.60;;;2.20;99.90;;;;;;5055344;28;20884;-86
2023/03/28 02:44:09;;;;;;;3.20;3.00;;;2.30;99.90;;;;;;5073322;28;20474;-87
2023/03/28 02:47:00;;;;;;;4.70;3.30;;;2.20;99.90;;;;;;5056516;28;20462;-86
2023/03/28 02:49:36;;;;;;;3.50;3.03;;;2.10;99.90;;;;;;5073208;28;20391;-86
2023/03/28 02:52:13;;;;;;;3.45;2.80;;;2.00;99.90;;;;;;5062078;28;20372;-86
2023/03/28 02:55:08;;;;;;;3.33;2.80;;;1.90;99.90;;;;;;5095482;28;20474;-86
2023/03/28 02:58:20;;;;;;;4.57;2.72;;;1.80;99.90;;;;;;5046343;28;20407;-85
2023/03/28 03:00:47;;;;;;;4.03;2.90;;;1.80;99.90;;;;;;5026999;28;20402;-85
2023/03/28 03:03:14;;;;;;;3.10;2.30;;;1.80;99.90;;;;;;5057201;28;20388;-85
2023/03/28 03:05:40;;;;;;;2.90;2.33;;;1.90;99.90;;;;;;5057823;28;20415;-85
2023/03/28 03:08:06;;;;;;;3.63;2.60;;;1.90;99.90;;;;;;5075385;28;20414;-85
2023/03/28 03:10:32;;;;;;;2.97;2.50;;;1.80;99.90;;;;;;5050547;28;20770;-85
2023/03/28 03:12:57;;;;;;;4.15;2.70;;;1.80;99.90;;;;;;5038523;28;20734;-85
2023/03/28 03:15:24;;;;;;;3.58;2.90;;;1.80;99.90;;;;;;5054909;28;20412;-85
2023/03/28 03:17:50;;;;;;;3.60;2.78;;;1.60;99.90;;;;;;5054784;28;20425;-85
2023/03/28 03:20:16;;;;;;;2.63;2.42;;;1.50;99.90;;;;;;5054928;28;20871;-84
2023/03/28 03:22:41;;;;;;;3.72;2.90;;;1.50;99.90;;;;;;5055567;28;20383;-85
2023/03/28 03:25:08;;;;;;;3.00;2.70;;;1.60;99.90;;;;;;5037387;28;20743;-85
2023/03/28 03:27:35;;;;;;;3.90;2.60;;;1.50;99.90;;;;;;5037188;28;20400;-85
2023/03/28 03:30:01;;;;;;;2.92;2.53;;;1.50;99.90;;;;;;5036877;28;20493;-85
2023/03/28 03:32:27;;;;;;;3.17;2.88;;;1.60;99.90;;;;;;5054620;28;20883;-85
2023/03/28 03:34:52;;;;;;;4.67;2.60;;;1.60;99.90;;;;;;5037628;28;20393;-86
2023/03/28 03:37:18;;;;;;;3.10;2.80;;;1.60;99.90;;;;;;5037371;28;20849;-84
2023/03/28 03:39:44;;;;;;;3.70;2.47;;;1.60;99.90;;;;;;5036317;28;20385;-84
2023/03/28 03:42:10;;;;;;;3.53;2.70;;;1.60;99.90;;;;;;5037693;28;20400;-85
2023/03/28 03:44:35;;;;;;;3.58;2.55;;;1.60;99.90;;;;;;5037959;28;20439;-84
2023/03/28 03:47:01;;;;;;;2.97;2.40;;;1.40;99.90;;;;;;5036519;28;20397;-86
2023/03/28 03:49:27;;;;;;;5.80;4.20;;;1.30;99.90;;;;;;5037072;28;20390;-85
2023/03/28 03:51:52;;;;;;;5.57;4.35;;;1.20;99.90;;;;;;5038193;28;20392;-85
2023/03/28 03:54:18;;;;;;;5.90;4.30;;;1.30;99.90;;;;;;5036972;28;20392;-85
2023/03/28 03:56:43;;;;;;;5.00;3.80;;;1.30;99.90;;;;;;5036463;28;20779;-86
2023/03/28 03:59:09;;;;;;;5.23;3.80;;;1.30;99.90;;;;;;5036483;28;20381;-85
2023/03/28 04:01:38;;;;;;;4.40;3.60;;;1.20;99.90;;;;;;5037503;28;20386;-85
2023/03/28 04:04:04;;;;;;;6.60;3.07;;;1.30;99.90;;;;;;5037519;28;20389;-85
2023/03/28 04:06:30;;;;;;;3.50;3.20;;;1.30;99.90;;;;;;5036024;28;20404;-85
2023/03/28 04:08:55;;;;;;;4.50;3.10;;;1.10;99.90;;;;;;5055044;28;20868;-85
2023/03/28 04:11:21;;;;;;;3.70;3.40;;;1.10;99.90;;;;;;5051489;28;20391;-85
2023/03/28 04:13:46;;;;;;;4.57;3.50;;;1.10;99.90;;;;;;5074986;28;20447;-85
2023/03/28 04:16:12;;;;;;;5.20;3.50;;;1.30;99.90;;;;;;5056097;28;20403;-85
2023/03/28 04:18:38;;;;;;;3.60;3.30;;;1.20;99.90;;;;;;5075697;28;20434;-85
2023/03/28 04:21:04;;;;;;;4.22;3.03;;;1.20;99.90;;;;;;5075567;28;20379;-85
2023/03/28 04:23:30;;;;;;;3.80;3.50;;;1.10;99.90;;;;;;5057479;28;20419;-85
2023/03/28 04:25:56;;;;;;;3.22;2.92;;;1.20;99.90;;;;;;5056168;28;20399;-86
2023/03/28 04:28:24;;;;;;;3.80;3.40;;;1.20;99.90;;;;;;5060159;28;20792;-85
2023/03/28 04:30:57;;;;;;;5.97;3.97;;;1.10;99.90;;;;;;5056976;28;20402;-85
2023/03/28 04:33:24;;;;;;;4.38;3.10;;;1.20;99.90;;;;;;5075634;28;20394;-85
2023/03/28 04:36:00;;;;;;;4.37;3.20;;;1.10;99.90;;;;;;5078336;28;20438;-86
2023/03/28 04:38:28;;;;;;;7.50;3.40;;;1.20;99.90;;;;;;5092865;28;20401;-85
2023/03/28 04:40:56;;;;;;;5.70;3.42;;;1.10;99.90;;;;;;5077019;28;20383;-85
2023/03/28 04:43:29;;;;;;;4.95;3.30;;;1.30;99.90;;;;;;5057232;28;21096;-86
2023/03/28 04:45:56;;;;;;;4.10;3.20;;;1.20;99.90;;;;;;5074236;28;20498;-85
2023/03/28 04:48:23;;;;;;;4.30;3.57;;;1.20;99.90;;;;;;5073277;28;20520;-85
2023/03/28 04:50:49;;;;;;;4.47;3.67;;;1.20;99.90;;;;;;5068159;28;20388;-85
2023/03/28 04:53:16;;;;;;;4.45;2.95;;;1.20;99.90;;;;;;5046451;28;20521;-85
2023/03/28 04:55:42;;;;;;;4.70;3.70;;;1.20;99.90;;;;;;5052372;28;20411;-86
2023/03/28 04:58:08;;;;;;;3.53;3.22;;;1.10;99.90;;;;;;5087903;28;20672;-85
2023/03/28 05:00:35;;;;;;;4.00;3.33;;;1.20;99.90;;;;;;5072691;28;20423;-86
2023/03/28 05:03:04;;;;;;;6.28;3.65;;;1.20;99.90;;;;;;5073793;28;20879;-86
2023/03/28 05:05:31;;;;;;;4.35;3.95;;;1.00;99.90;;;;;;5053754;28;20445;-86
2023/03/28 05:07:57;;;;;;;5.35;4.00;;;1.00;99.90;;;;;;5055972;28;20391;-87
2023/03/28 05:10:23;;;;;;;5.63;4.18;;;0.90;99.90;;;;;;5047882;28;20389;-86
2023/03/28 05:12:49;;;;;;;4.35;3.95;;;1.00;99.90;;;;;;5047340;28;20391;-86
2023/03/28 05:15:14;;;;;;;5.85;4.60;;;0.90;99.90;;;;;;5046747;28;20782;-86
2023/03/28 05:17:40;;;;;;;5.33;4.57;;;0.90;99.90;;;;;;5046642;28;20390;-87
2023/03/28 05:20:09;;;;;;;5.10;4.60;;;1.00;99.90;;;;;;5060038;28;20409;-86
2023/03/28 05:22:35;;;;;;;5.65;4.75;;;1.00;99.90;;;;;;5066637;28;20471;-86
2023/03/28 05:25:02;;;;;;;4.53;4.10;;;1.10;99.90;;;;;;5045337;28;20407;-86
2023/03/28 05:27:27;;;;;;;3.83;3.30;;;1.10;99.90;;;;;;5047734;28;20382;-87
2023/03/28 05:29:53;;;;;;;4.63;3.40;;;1.10;99.90;;;;;;5039310;28;20416;-87
2023/03/28 05:32:19;;;;;;;4.95;3.80;;;0.90;99.90;;;;;;5060708;28;20877;-86
2023/03/28 05:34:44;;;;;;;5.13;3.95;;;1.00;99.90;;;;;;5069606;28;20418;-86
2023/03/28 05:37:10;;;;;;;7.65;4.95;;;1.00;99.90;;;;;;5072958;28;20404;-87
2023/03/28 05:39:35;;;;;;;4.43;4.03;;;1.00;99.90;;;;;;5056094;28;20390;-87
2023/03/28 05:42:01;;;;;;;5.63;4.40;;;1.00;99.90;;;;;;5054663;28;20418;-87
2023/03/28 05:44:26;;;;;;;6.93;4.32;;;1.00;99.90;;;;;;5055438;28;20384;-87
2023/03/28 05:46:52;;;;;;;5.78;4.75;;;1.00;99.90;;;;;;5056077;28;20388;-88
2023/03/28 05:49:17;;;;;;;7.35;4.68;;;1.10;99.90;;;;;;5055444;28;20400;-87
2023/03/28 05:51:43;;;;;;;4.28;3.65;;;1.20;99.90;;;;;;5074692;28;20380;-87
2023/03/28 05:54:08;;;;;;;4.30;3.90;;;1.20;99.90;;;;;;5061375;28;20754;-87
2023/03/28 05:56:34;;;;;;;6.40;4.40;;;1.30;99.90;;;;;;5059553;28;20412;-87
2023/03/28 05:59:00;;;;;;;5.50;4.47;;;1.40;99.90;;;;;;5058896;28;20399;-86
2023/03/28 06:01:27;;;;;;;7.88;4.15;;;1.40;99.90;;;;;;5057342;28;20384;-86
2023/03/28 06:03:54;;;;;;;4.30;3.90;;;1.30;99.90;;;;;;5055120;28;20384;-87
2023/03/28 06:06:19;;;;;;;6.60;4.10;;;1.30;99.90;;;;;;5054035;28;20388;-87
2023/03/28 06:08:45;;;;;;;6.78;4.30;;;1.30;99.90;;;;;;5055288;28;20908;-87
2023/03/28 06:11:11;;;;;;;5.25;4.75;;;1.30;99.90;;;;;;5058881;28;20391;-86
2023/03/28 06:13:37;;;;;;;4.50;4.10;;;1.40;99.90;;;;;;5072773;28;20383;-86
2023/03/28 06:16:02;;;;;;;4.50;4.10;;;1.40;99.90;;;;;;5056089;28;20492;-86
2023/03/28 06:18:28;;;;;;;5.47;4.65;;;1.40;99.90;;;;;;5074839;28;20394;-86
2023/03/28 06:20:54;;;;;;;7.65;4.70;;;1.50;99.90;;;;;;5055764;28;20380;-87
2023/03/28 06:23:19;;;;;;;5.22;4.68;;;1.40;99.90;;;;;;5055728;28;20459;-86
2023/03/28 06:25:45;;;;;;;4.82;4.43;;;1.50;99.90;;;;;;5074786;28;20411;-86
2023/03/28 06:28:11;;;;;;;6.93;4.57;;;1.60;99.90;;;;;;5055151;28;20427;-86
2023/03/28 06:30:38;;;;;;;7.40;5.00;;;1.70;99.90;;;;;;5056911;28;20391;-86
2023/03/28 06:33:05;;;;;;;6.23;5.17;;;1.70;99.90;;;;;;5056886;28;20536;-86
2023/03/28 06:35:31;;;;;;;5.63;4.82;;;1.90;99.90;;;;;;5072206;28;20487;-87
2023/03/28 06:37:57;;;;;;;6.90;4.97;;;1.90;99.90;;;;;;5071813;28;20437;-86
2023/03/28 06:40:23;;;;;;;5.57;5.07;;;2.00;99.90;;;;;;5072830;28;20384;-88
2023/03/28 06:42:49;;;;;;;6.93;4.70;;;2.50;99.90;;;;;;5073052;28;20379;-86
2023/03/28 06:45:14;;;;;;;4.75;4.25;;;2.40;99.90;;;;;;5054437;28;20910;-88
2023/03/28 06:47:40;;;;;;;6.15;5.00;;;2.50;99.90;;;;;;5054193;28;20417;-87
2023/03/28 06:50:06;;;;;;;6.75;4.97;;;2.30;99.90;;;;;;5054424;28;20387;-87
2023/03/28 06:52:32;;;;;;;5.38;4.88;;;2.40;99.90;;;;;;5054390;28;20438;-86
2023/03/28 06:54:57;;;;;;;5.53;4.53;;;2.50;99.90;;;;;;5072789;28;20379;-87
2023/03/28 06:57:23;;;;;;;4.63;4.20;;;2.70;99.90;;;;;;5088388;28;20387;-87
2023/03/28 06:59:50;;;;;;;7.07;5.18;;;2.60;99.90;;;;;;5077426;28;20391;-87
2023/03/28 07:02:16;;;;;;;9.45;4.82;;;2.70;99.90;;;;;;5077348;28;20399;-87
2023/03/28 07:04:42;;;;;;;5.10;4.60;;;2.70;99.90;;;;;;5063984;28;20388;-87
2023/03/28 07:07:08;;;;;;;4.70;4.20;;;2.90;99.90;;;;;;5093448;28;20429;-87
2023/03/28 07:09:35;;;;;;;5.20;4.70;;;3.10;99.90;;;;;;5064784;28;20399;-87
2023/03/28 07:12:01;;;;;;;5.60;4.40;;;3.10;99.90;;;;;;5053041;28;20483;-86
2023/03/28 07:14:26;;;;;;;5.82;4.57;;;3.10;99.90;;;;;;5051230;28;20385;-87
2023/03/28 07:16:52;;;;;;;4.43;4.03;;;3.30;99.90;;;;;;5052063;28;20431;-87
2023/03/28 07:19:18;;;;;;;4.73;4.23;;;3.40;99.90;;;;;;5051701;28;20867;-86
2023/03/28 07:21:43;;;;;;;4.10;3.70;;;3.30;99.90;;;;;;5037928;28;20373;-87
2023/03/28 07:24:09;;;;;;;5.87;4.10;;;3.30;99.90;;;;;;5034298;28;20417;-87
2023/03/28 07:26:34;;;;;;;4.40;3.90;;;3.40;99.90;;;;;;5033858;28;20464;-86
2023/03/28 07:29:00;;;;;;;5.00;4.50;;;3.50;99.90;;;;;;5033634;28;20447;-87
2023/03/28 07:31:26;;;;;;;5.63;4.27;;;3.60;99.90;;;;;;5034189;28;20440;-87
2023/03/28 07:33:51;;;;;;;4.95;3.90;;;3.80;99.90;;;;;;5033821;28;20472;-87
2023/03/28 07:36:20;;;;;;;5.50;3.80;;;3.90;99.90;;;;;;5131887;22;20417;-93
2023/03/28 07:38:46;;;;;;;3.92;3.20;;;4.00;7.40;;;;;;5117100;28;20389;-94
2023/03/28 07:41:12;;;;;;;4.30;2.80;;;4.10;1.00;;;;;;5096682;28;20402;-90
2023/03/28 07:43:38;;;;;;;4.40;2.72;;;4.10;1.00;;;;;;5082343;28;20381;-90
2023/03/28 07:46:06;;;;;;;4.68;2.78;;;4.30;1.00;;;;;;5081294;28;20393;-90
2023/03/28 07:48:33;;;;;;;4.40;3.20;;;4.40;1.00;;;;;;5078530;28;20896;-90
2023/03/28 07:51:00;;;;;;;3.63;2.63;;;4.00;1.00;;;;;;5081664;28;20390;-89
2023/03/28 07:53:26;;;;;;;4.50;2.50;;;4.40;99.90;;;;;;5082131;28;20382;-90
2023/03/28 07:55:52;;;;;;;3.50;2.50;;;6.40;99.90;;;;;;5083106;28;20402;-89
2023/03/28 07:58:18;;;;;;;4.20;2.40;;;4.70;99.90;;;;;;5087541;28;20396;-90
2023/03/28 08:00:44;;;;;;;3.78;2.47;;;6.10;99.90;;;;;;5084146;28;20386;-90
2023/03/28 08:03:13;;;;;;;3.03;2.08;;;4.60;99.90;;;;;;5086332;28;20382;-90
2023/03/28 08:05:39;;;;;;;4.00;2.10;;;4.90;1.00;;;;;;5083913;28;20390;-91
2023/03/28 08:08:06;;;;;;;4.00;2.30;;;4.90;99.90;;;;;;5082848;28;20388;-90
2023/03/28 08:10:33;;;;;;;4.10;2.30;;;5.00;1.00;;;;;;5083141;28;20427;-90
2023/03/28 08:12:59;;;;;;;3.65;2.00;;;5.20;1.00;;;;;;5082035;28;20469;-91
2023/03/28 08:15:24;;;;;;;4.40;2.10;;;6.70;99.90;;;;;;5082516;28;20425;-90
2023/03/28 08:17:50;;;;;;;1.75;1.45;;;5.90;1.00;;;;;;5083201;28;20431;-91
2023/03/28 08:20:18;;;;;;;4.07;1.90;;;5.10;1.00;;;;;;5082970;28;20413;-90
2023/03/28 08:22:46;;;;;;;4.10;1.97;;;5.30;99.90;;;;;;5080918;28;20392;-90
2023/03/28 08:25:12;;;;;;;1.92;1.70;;;5.50;1.00;;;;;;5080203;28;20374;-90
2023/03/28 08:27:38;;;;;;;2.33;1.90;;;5.40;99.90;;;;;;5080663;28;20382;-90
2023/03/28 08:30:05;;;;;;;2.20;1.93;;;5.60;99.90;;;;;;5081616;28;20397;-91
2023/03/28 08:32:30;;;;;;;2.70;2.00;;;5.60;1.00;;;;;;5080157;28;20392;-90
2023/03/28 08:34:56;;;;;;;4.20;2.00;;;5.80;1.00;;;;;;5080202;28;20473;-91
2023/03/28 08:37:23;;;;;;;2.97;1.70;;;5.90;1.00;;;;;;5079521;28;20945;-90
2023/03/28 08:39:49;;;;;;;4.10;1.73;;;6.10;1.00;;;;;;5084861;28;20914;-92
2023/03/28 08:42:34;;;;;;;3.33;1.40;;;6.10;26.80;;;;;;5079376;28;20464;-90
2023/03/28 08:45:00;;;;;;;1.92;1.20;;;6.10;99.90;;;;;;5080358;28;20397;-90
2023/03/28 08:47:41;;;;;;;2.87;1.20;;;6.20;1.00;;;;;;5079474;28;20394;-90
2023/03/28 08:50:14;;;;;;;2.40;1.20;;;6.20;99.90;;;;;;5079271;28;20389;-90
2023/03/28 08:52:41;;;;;;;2.13;1.50;;;6.30;73.10;;;;;;5079815;28;20382;-90
2023/03/28 08:55:12;;;;;;;2.67;1.20;;;6.30;67.90;;;;;;5085988;28;20397;-90
2023/03/28 08:57:41;;;;;;;3.53;1.27;;;6.40;1.00;;;;;;5097943;28;20409;-91
2023/03/28 09:00:13;;;;;;;2.35;1.25;;;6.60;39.70;;;;;;5084858;28;20413;-90
2023/03/28 09:02:41;;;;;;;2.13;1.05;;;6.60;35.60;;;;;;5078318;28;20392;-89
2023/03/28 09:05:17;;;;;;;1.60;1.00;;;6.60;32.90;;;;;;5078940;28;20876;-90
2023/03/28 09:07:55;;;;;;;3.03;1.30;;;6.70;31.10;;;;;;5081795;28;20449;-90
2023/03/28 09:10:40;;;;;;;2.95;1.38;;;6.70;30.90;;;;;;5078512;28;20983;-90
2023/03/28 09:13:19;;;;;;;3.38;1.00;;;7.40;28.40;;;;;;5080374;28;20786;-89
2023/03/28 09:15:58;;;;;;;1.52;1.33;;;6.80;27.70;;;;;;5087299;28;20454;-90
2023/03/28 09:18:57;;;;;;;1.50;1.40;;;6.90;28.10;;;;;;5097555;28;20389;-89
2023/03/28 09:22:02;;;;;;;1.60;1.10;;;7.00;25.80;;;;;;5119008;28;20398;-94
2023/03/28 09:25:01;;;;;;;3.25;1.50;;;6.90;24.30;;;;;;5070512;28;20398;-91
2023/03/28 09:28:09;;;;;;;2.92;1.40;;;7.10;26.20;;;;;;5096388;28;20385;-92
2023/03/28 09:30:42;;;;;;;2.40;1.30;;;7.20;26.90;;;;;;5075867;28;20396;-89
2023/03/28 09:33:18;;;;;;;3.83;1.70;;;7.40;27.10;;;;;;5081433;28;20389;-89
2023/03/28 09:35:45;;;;;;;2.70;1.50;;;7.40;28.20;;;;;;5079384;28;20455;-89
2023/03/28 09:38:49;;;;;;;1.90;1.25;;;7.60;27.40;;;;;;5081233;28;20394;-89
2023/03/28 09:41:26;;;;;;;3.63;1.40;;;7.70;25.20;;;;;;5017345;28;20383;-89
2023/03/28 09:43:57;;;;;;;2.85;1.50;;;7.90;24.60;;;;;;5070851;28;20396;-88
2023/03/28 09:46:35;;;;;;;2.37;1.53;;;7.70;23.60;;;;;;5077277;28;20386;-89
2023/03/28 09:49:01;;;;;;;2.80;1.30;;;7.90;23.90;;;;;;5095539;28;20382;-89
2023/03/28 09:51:27;;;;;;;1.70;1.60;;;8.10;24.40;;;;;;5078911;28;20405;-88
2023/03/28 09:53:53;;;;;;;1.80;1.35;;;8.00;23.30;;;;;;5093965;28;20381;-88
2023/03/28 09:56:39;;;;;;;1.30;1.13;;;8.40;22.40;;;;;;5093528;28;20402;-90
2023/03/28 09:59:22;;;;;;;1.40;1.30;;;9.60;20.50;;;;;;5086196;28;20366;-89
2023/03/28 10:01:50;;;;;;;2.60;1.60;;;8.30;20.60;;;;;;5077534;28;20471;-88
2023/03/28 10:04:26;;;;;;;2.70;1.17;;;8.40;21.90;;;;;;5077458;28;20473;-89
2023/03/28 10:06:55;;;;;;;1.40;1.30;;;8.80;22.00;;;;;;5095229;28;20386;-88
2023/03/28 10:09:25;;;;;;;1.98;1.50;;;8.90;18.90;;;;;;5077277;28;20390;-88
2023/03/28 10:12:03;;;;;;;1.75;1.30;;;8.80;22.40;;;;;;5079097;28;20382;-88
2023/03/28 10:14:40;;;;;;;1.92;1.55;;;8.80;19.30;;;;;;5076831;28;20871;-89
2023/03/28 10:17:14;;;;;;;4.50;1.67;;;8.80;18.20;;;;;;5076101;28;20406;-89
2023/03/28 10:19:45;;;;;;;2.63;1.60;;;8.70;17.60;;;;;;5077068;28;20396;-88
2023/03/28 10:22:15;;;;;;;1.40;1.20;;;9.80;19.00;;;;;;5078718;28;20410;-89
2023/03/28 10:24:42;;;;;;;1.50;1.40;;;9.20;16.50;;;;;;5076610;28;20394;-88
2023/03/28 10:27:24;;;;;;;3.00;1.50;;;9.20;17.70;;;;;;5076085;28;20446;-88
2023/03/28 10:29:52;;;;;;;1.30;1.20;;;9.60;16.30;;;;;;5076359;28;20397;-89
2023/03/28 10:32:31;;;;;;;1.92;1.40;;;9.60;15.40;;;;;;5076793;28;20386;-89
2023/03/28 10:35:06;;;;;;;1.95;1.60;;;9.30;13.40;;;;;;5076852;28;20446;-88
2023/03/28 10:37:33;;;;;;;2.78;1.67;;;9.30;13.10;;;;;;5075960;28;20413;-88
2023/03/28 10:40:05;;;;;;;2.75;1.30;;;10.00;14.00;;;;;;5077200;28;20977;-89
2023/03/28 10:42:44;;;;;;;2.85;1.48;;;9.80;12.80;;;;;;5088133;28;20403;-89
2023/03/28 10:45:33;;;;;;;2.45;1.50;;;10.30;13.30;;;;;;5096257;28;20374;-89
2023/03/28 10:48:05;;;;;;;2.30;1.50;;;9.80;16.10;;;;;;5097510;28;20386;-89
2023/03/28 10:50:43;;;;;;;2.78;1.30;;;10.20;13.60;;;;;;5095805;28;20442;-88
2023/03/28 10:53:48;;;;;;;2.30;1.60;;;10.30;13.00;;;;;;5098205;28;20377;-89
2023/03/28 10:56:40;;;;;;;2.30;1.50;;;9.90;10.60;;;;;;5109052;28;20402;-89
2023/03/28 10:59:27;;;;;;;2.47;1.77;;;9.90;11.00;;;;;;5093847;28;20390;-88
2023/03/28 11:01:56;;;;;;;2.25;1.70;;;9.70;11.30;;;;;;5110854;28;20401;-88
2023/03/28 11:04:40;;;;;;;2.00;1.67;;;9.10;11.60;;;;;;5098269;28;20382;-88
2023/03/28 11:07:27;;;;;;;3.95;2.00;;;9.30;10.80;;;;;;5114485;28;20433;-88
2023/03/28 11:10:11;;;;;;;3.83;1.95;;;9.60;10.40;;;;;;5098951;28;20477;-90
2023/03/28 11:12:54;;;;;;;2.70;1.52;;;9.60;11.50;;;;;;5098783;28;20381;-89
2023/03/28 11:15:25;;;;;;;3.03;1.83;;;9.90;10.80;;;;;;5098830;28;20402;-90
2023/03/28 11:17:57;;;;;;;2.00;1.65;;;10.10;12.30;;;;;;5081347;28;20385;-89
2023/03/28 11:20:47;;;;;;;3.53;1.90;;;10.60;14.50;;;;;;5088088;28;20378;-89
2023/03/28 11:23:18;;;;;;;2.33;1.50;;;10.90;12.60;;;;;;5097601;28;20388;-89
2023/03/28 11:26:08;;;;;;;2.92;1.50;;;11.20;12.60;;;;;;5100927;28;20370;-91
2023/03/28 11:28:58;;;;;;;2.37;1.70;;;11.20;10.80;;;;;;5103638;28;20402;-90
2023/03/28 11:31:37;;;;;;;2.77;1.80;;;10.80;11.30;;;;;;5103773;28;20394;-91
2023/03/28 11:34:12;;;;;;;1.45;1.35;;;11.10;10.10;;;;;;5102994;28;20398;-89
2023/03/28 11:36:50;;;;;;;2.08;1.30;;;11.40;10.80;;;;;;5102973;28;20402;-89
2023/03/28 11:39:46;;;;;;;2.90;1.60;;;11.90;5.60;;;;;;5101441;28;20402;-89
2023/03/28 11:42:37;;;;;;;2.67;1.90;;;12.30;6.00;;;;;;5095659;28;20370;-89
2023/03/28 11:45:30;;;;;;;2.50;1.80;;;13.00;3.70;;;;;;5102453;28;20385;-88
2023/03/28 11:48:04;;;;;;;3.42;1.55;;;12.60;3.20;;;;;;5103426;28;20394;-90
2023/03/28 11:51:00;;;;;;;3.60;1.77;;;12.30;2.90;;;;;;5120679;28;20455;-90
2023/03/28 11:53:36;;;;;;;1.83;1.50;;;12.70;2.70;;;;;;5096783;28;20443;-89
2023/03/28 11:56:39;;;;;;;3.10;1.40;;;13.30;1.00;;;;;;5101877;28;20409;-89
2023/03/28 11:59:25;;;;;;;2.63;1.50;;;12.60;1.00;;;;;;5120208;28;20427;-90
2023/03/28 12:02:05;;;;;;;1.58;1.48;;;13.10;1.00;;;;;;5103627;28;20381;-91
2023/03/28 12:04:44;;;;;;;3.40;1.70;;;13.30;1.00;;;;;;5103446;28;20386;-94
2023/03/28 12:07:34;;;;;;;3.17;1.90;;;12.90;1.00;;;;;;5102890;28;20401;-91
2023/03/28 12:10:26;;;;;;;2.85;1.65;;;13.70;1.00;;;;;;5102174;28;20410;-91
2023/03/28 12:13:17;;;;;;;2.40;1.60;;;14.50;1.00;;;;;;5118640;28;20389;-89
2023/03/28 12:15:58;;;;;;;2.08;1.60;;;14.50;1.00;;;;;;5101644;28;20401;-90
2023/03/28 12:18:57;;;;;;;2.80;1.40;;;13.00;1.00;;;;;;5119415;28;20369;-89
2023/03/28 12:21:25;;;;;;;2.60;1.67;;;13.30;1.00;;;;;;5101077;28;20378;-90
2023/03/28 12:23:52;;;;;;;2.42;1.70;;;13.60;1.00;;;;;;5100298;28;20412;-90
2023/03/28 12:26:44;;;;;;;2.90;1.85;;;13.60;1.00;;;;;;5118828;28;20397;-91
2023/03/28 12:29:36;;;;;;;2.53;1.83;;;14.40;1.00;;;;;;5070368;28;20378;-89
2023/03/28 12:32:18;;;;;;;2.83;1.65;;;14.50;1.00;;;;;;5090891;28;20394;-91
2023/03/28 12:35:07;;;;;;;2.03;1.40;;;13.40;1.00;;;;;;5102055;28;20401;-92
2023/03/28 12:37:57;;;;;;;2.77;1.87;;;14.30;1.00;;;;;;5118192;28;20435;-92
2023/03/28 12:40:35;;;;;;;2.20;2.00;;;14.00;1.00;;;;;;5102446;28;20386;-92
2023/03/28 12:43:01;;;;;;;2.42;1.80;;;13.50;1.00;;;;;;5102490;28;20412;-91
2023/03/28 12:45:30;;;;;;;2.00;1.80;;;14.40;1.00;;;;;;5101782;28;20402;-90
2023/03/28 12:48:01;;;;;;;2.22;1.70;;;14.60;1.00;;;;;;5100251;28;20385;-91
2023/03/28 12:50:39;;;;;;;2.60;1.53;;;15.60;1.00;;;;;;5100649;28;20435;-92
2023/03/28 12:53:07;;;;;;;3.47;1.70;;;16.70;1.00;;;;;;5100142;28;20378;-90
2023/03/28 12:55:32;;;;;;;2.20;1.50;;;16.40;1.00;;;;;;5101046;28;20382;-91
2023/03/28 12:58:21;;;;;;;2.10;1.50;;;15.10;1.00;;;;;;5101400;28;20401;-91
2023/03/28 13:01:05;;;;;;;2.00;1.60;;;14.60;1.00;;;;;;5101537;28;20389;-89
2023/03/28 13:03:51;;;;;;;2.00;1.50;;;15.60;1.00;;;;;;5118616;28;20377;-90
2023/03/28 13:06:41;;;;;;;2.30;1.70;;;16.90;1.00;;;;;;5100541;28;20436;-92
2023/03/28 13:09:44;;;;;;;3.97;1.67;;;14.70;1.00;;;;;;5097053;28;20413;-88
2023/03/28 13:12:24;;;;;;;2.90;1.90;;;15.00;1.00;;;;;;5104839;28;20393;-90
2023/03/28 13:14:57;;;;;;;3.33;1.40;;;15.10;1.00;;;;;;5083915;28;20378;-88
2023/03/28 13:17:25;;;;;;;1.70;1.60;;;15.50;1.00;;;;;;5081260;28;20441;-88
2023/03/28 13:20:09;;;;;;;2.05;1.75;;;15.10;1.00;;;;;;5081642;28;20407;-88
2023/03/28 13:22:59;;;;;;;1.80;1.50;;;15.40;1.00;;;;;;5081805;28;20401;-88
2023/03/28 13:25:26;;;;;;;2.50;1.50;;;14.80;1.00;;;;;;5079783;28;20386;-88